WetterOnline ( https://www.wetteronline.at )

Wetter aktuell Itzehoe

Aktuelles Wetter: Itzehoe (26m)

6-stündlich | Neueste Meldungen
Ortszeit Temperatur Wetter
Sa, 26.11. 7:00 2.6° C Nebel
Sa, 26.11. 1:00 3.6° C Nebel
Fr, 25.11. 19:00 7.7° C bedeckt
Fr, 25.11. 13:00 6.4° C leichter Regen
Fr, 25.11. 7:00 3.8° C bedeckt
Fr, 25.11. 1:00 4.7° C fast wolkenlos
Do, 24.11. 19:00 7.9° C bedeckt
Do, 24.11. 13:00 8.4° C bedeckt
Ortszeit Temperatur Wetter
Sa, 26.11. 10:30 5.1° C fast wolkenlos
Sa, 26.11. 10:20 5.1° C fast wolkenlos
Sa, 26.11. 10:10 4.9° C leicht bewölkt
Sa, 26.11. 10:00 4.9° C wolkig
Sa, 26.11. 9:50 4.9° C wolkig
Sa, 26.11. 9:40 4.5° C bewölkt
Sa, 26.11. 9:30 4.3° C bedeckt
Sa, 26.11. 9:00 3.5° C bewölkt
Sa, 26.11. 8:30 3.7° C bewölkt
Sa, 26.11. 8:00 3.1° C Nebel
Sa, 26.11. 7:30 3.5° C Nebel
Ortszeit Relative Feuchte Sichtweite
Sa, 26.11. 7:00 100% 0.5 km
Sa, 26.11. 1:00 99% 0.2 km
Fr, 25.11. 19:00 97% 5.0 km
Fr, 25.11. 13:00 95% 11 km
Fr, 25.11. 7:00 97% 8 km
Fr, 25.11. 1:00 97% 5.0 km
Do, 24.11. 19:00 89% 22 km
Do, 24.11. 13:00 85% 25 km
Ortszeit Relative Feuchte Sichtweite
Sa, 26.11. 10:30 97% 8 km
Sa, 26.11. 10:20 97% -
Sa, 26.11. 10:10 97% -
Sa, 26.11. 10:00 98% 9 km
Sa, 26.11. 9:50 98% -
Sa, 26.11. 9:40 99% -
Sa, 26.11. 9:30 99% 6 km
Sa, 26.11. 9:00 100% 4.2 km
Sa, 26.11. 8:30 100% 4.7 km
Sa, 26.11. 8:00 100% 3.8 km
Sa, 26.11. 7:30 100% 3.5 km
Ortszeit Niederschlagsmenge Niederschlagsart
Sa, 26.11. 7:00 0.1 l/m2 in 12 Std. -
Sa, 26.11. 1:00 0.1 l/m2 in 6 Std. Regen
Fr, 25.11. 19:00 3 l/m2 in 12 Std. Regen
Fr, 25.11. 13:00 3 l/m2 in 6 Std. Regen
Fr, 25.11. 7:00 0.1 l/m2 in 12 Std. -
Fr, 25.11. 1:00 0.1 l/m2 in 6 Std. Sprühregen
Do, 24.11. 19:00 0.1 l/m2 in 12 Std. -
Do, 24.11. 13:00 0.1 l/m2 in 6 Std. Sprühregen
Ortszeit Niederschlagsmenge Niederschlagsart
Sa, 26.11. 10:30 0.0 l/m2 in 1 Std. -
Sa, 26.11. 10:20 keine Meldung -
Sa, 26.11. 10:10 keine Meldung -
Sa, 26.11. 10:00 0.0 l/m2 in 1 Std. -
Sa, 26.11. 9:50 keine Meldung -
Sa, 26.11. 9:40 keine Meldung -
Sa, 26.11. 9:30 0.0 l/m2 in 1 Std. -
Sa, 26.11. 9:00 0.0 l/m2 in 1 Std. -
Sa, 26.11. 8:30 0.0 l/m2 in 1 Std. -
Sa, 26.11. 8:00 0.0 l/m2 in 1 Std. -
Sa, 26.11. 7:30 0.0 l/m2 in 1 Std. -
Ortszeit Stärke Spitze Richtung
km/h Bft. km/h Grad Sektor
Sa, 26.11. 7:00 4 1 7 220° SW
Sa, 26.11. 1:00 0 0 11 - -
Fr, 25.11. 19:00 2 1 13 140° SO
Fr, 25.11. 13:00 6 1 22 160° S
Fr, 25.11. 7:00 7 2 22 130° SO
Fr, 25.11. 1:00 7 2 14 130° SO
Do, 24.11. 19:00 4 1 14 150° SO
Do, 24.11. 13:00 6 1 17 210° SW
Ortszeit Stärke Spitze Richtung
km/h Bft. km/h Grad Sektor
Sa, 26.11. 10:30 4 1 7 160° S
Sa, 26.11. 10:20 4 1 - 160° S
Sa, 26.11. 10:10 4 1 - 150° SO
Sa, 26.11. 10:00 4 1 7 170° S
Sa, 26.11. 9:50 4 1 - 170° S
Sa, 26.11. 9:40 4 1 - 180° S
Sa, 26.11. 9:30 2 1 7 140° SO
Sa, 26.11. 9:00 4 1 7 190° S
Sa, 26.11. 8:30 2 1 6 200° S
Sa, 26.11. 8:00 4 1 7 180° S
Sa, 26.11. 7:30 4 1 7 200° S
Ortszeit Untergrenze Bedeckung Gattung
total tief tief mittel hoch
Sa, 26.11. 7:00 1800 m 7/8 7/8 - - -
Sa, 26.11. 1:00 <30 m 1/8 0/8 - - -
Fr, 25.11. 19:00 270 m 8/8 8/8 - - -
Fr, 25.11. 13:00 180 m 7/8 7/8 - - -
Fr, 25.11. 7:00 1440 m 8/8 8/8 - - -
Fr, 25.11. 1:00 8100 m 1/8 0/8 - - -
Do, 24.11. 19:00 540 m 8/8 8/8 - - -
Do, 24.11. 13:00 330 m 8/8 8/8 - - -
Ortszeit Bedeckungsgrad in Achtel und Wolkenuntergrenze
Sa, 26.11. 10:30 1(120m)
Sa, 26.11. 10:20 1(120m)
Sa, 26.11. 10:10 2
Sa, 26.11. 10:00 5(1800m)
Sa, 26.11. 9:50 5(1800m)
Sa, 26.11. 9:40 7
Sa, 26.11. 9:30 8(1800m)
Sa, 26.11. 9:00 7(1800m)
Sa, 26.11. 8:30 7(1800m)
Sa, 26.11. 8:00 7(1800m)
Sa, 26.11. 7:30 7(1800m)
Ortszeit Luftdruck NN (hPa) Tendenz (hPa in 3 Std.)
Sa, 26.11. 7:00 1025 + 1,6
Sa, 26.11. 1:00 1022 + 2,2
Fr, 25.11. 19:00 1018 + 2,0
Fr, 25.11. 13:00 1014 + 0,8
Fr, 25.11. 7:00 1013 + 0,1
Fr, 25.11. 1:00 1013 + 0,4
Do, 24.11. 19:00 1012 + 1,3
Do, 24.11. 13:00 1009 + 1,5
Ortszeit Luftdruck NN (hPa) Tendenz (hPa in 3 Std.)
Sa, 26.11. 10:30 1027 + 1,6
Sa, 26.11. 10:20 1027 keine Meldung
Sa, 26.11. 10:10 1027 keine Meldung
Sa, 26.11. 10:00 1027 + 1,5
Sa, 26.11. 9:50 1027 keine Meldung
Sa, 26.11. 9:40 1027 keine Meldung
Sa, 26.11. 9:30 1027 + 1,6
Sa, 26.11. 9:00 1027 + 1,7
Sa, 26.11. 8:30 1026 + 1,8
Sa, 26.11. 8:00 1026 + 1,5
Sa, 26.11. 7:30 1026 + 1,5
Ortszeit Schneehöhe (cm)
Sa, 26.11. 7:00 -
Sa, 26.11. 1:00 -
Fr, 25.11. 19:00 -
Fr, 25.11. 13:00 -
Fr, 25.11. 7:00 -
Fr, 25.11. 1:00 -
Do, 24.11. 19:00 -
Do, 24.11. 13:00 -
Ortszeit Schneehöhe (cm)
Sa, 26.11. 10:30 -
Sa, 26.11. 10:20 -
Sa, 26.11. 10:10 -
Sa, 26.11. 10:00 -
Sa, 26.11. 9:50 -
Sa, 26.11. 9:40 -
Sa, 26.11. 9:30 -
Sa, 26.11. 9:00 -
Sa, 26.11. 8:30 -
Sa, 26.11. 8:00 -
Sa, 26.11. 7:30 -
Link zu dieser Seite / Seite empfehlen

Das Wetter in ...